OOCL Atlanta — VRAR6 — position and weather

sailwx.info

Track history (hours):
 
Tides and Currents Weather Stations Pressure Air Temp Water Temp Dewpoint Dewpoint Depression Visibility Wind Speed Wind Dir Waves Ship Positions

OOCL Atlanta

Last reported at 2015-Aug-27 22:13 UTC. Time now 2015-Sep-01 05:56 UTC.
Position N 23°30' E 117°58'.

Length 323 m; beam 42.8 m; draft 14.5 m.

Type: Cargo ship. MMSI: 477920300.

Date/timePositionNaut miles runAvg speedWind from/ knotsBaromVisibWave heightAir tempDewpointWater temp
2015-Aug-27 22:13N 23°30' E 117°58'7520.3
2015-Aug-27 18:33N 22°49' E 116°50'12720.4
2015-Aug-27 12:18N 22°22' E 114°35'6 0.2
2015-Aug-26 11:26N 22°19' E 114°30'1212.7
2015-Aug-26 10:30N 22°09' E 114°22'1212.0
2015-Aug-26 09:32N 22°12' E 114°10'9 8.9
2015-Aug-26 08:33N 22°20' E 114°07'0 0.1
2015-Aug-26 02:23N 22°21' E 114°07'0 0.0
2015-Aug-26 00:08N 22°21' E 114°07'0 0.0
2015-Aug-25 22:14N 22°21' E 114°07'0 0.0
2015-Aug-25 21:26N 22°21' E 114°07'0 0.0
2015-Aug-25 20:17N 22°21' E 114°07'0 0.0
2015-Aug-25 19:23N 22°21' E 114°07'0 0.0
2015-Aug-25 18:29N 22°21' E 114°07'0 0.0
2015-Aug-25 15:17N 22°21' E 114°07'2 2.6
2015-Aug-25 14:33N 22°19' E 114°06'10 8.5
2015-Aug-25 13:22N 22°21' E 113°56'12 2.8
2015-Aug-25 09:14N 22°32' E 113°51'0 0.0
2015-Aug-25 08:32N 22°32' E 113°51'0 0.0
2015-Aug-25 07:20N 22°32' E 113°51'0 0.0
2015-Aug-25 06:26N 22°32' E 113°51'0 0.0
2015-Aug-25 05:32N 22°32' E 113°51'0 0.0
2015-Aug-25 04:32N 22°32' E 113°51'0 0.0
2015-Aug-25 03:32N 22°32' E 113°51'0 0.0
2015-Aug-25 02:32N 22°32' E 113°51'0 0.0
2015-Aug-25 01:32N 22°32' E 113°51'0 0.0
2015-Aug-25 00:32N 22°32' E 113°51'4 1.7
2015-Aug-24 22:23N 22°28' E 113°52'16 8.8
2015-Aug-24 20:33N 22°19' E 114°06'1110.9
2015-Aug-24 19:32N 22°10' E 114°13'1211.8
2015-Aug-24 18:34N 22°07' E 114°25'1613.8
2015-Aug-24 17:25N 21°53' E 114°18'  
2015-Aug-18 16:33N 01°14' E 104°04'1312.6
2015-Aug-18 15:33N 01°15' E 103°51'0 0.3
2015-Aug-18 14:33N 01°16' E 103°51'0 0.1
2015-Aug-18 13:33N 01°16' E 103°51'0 0.0
2015-Aug-18 12:30N 01°16' E 103°51'0 0.0
2015-Aug-18 11:24N 01°16' E 103°51'0 0.0
2015-Aug-18 10:30N 01°16' E 103°51'0 0.0
2015-Aug-18 09:30N 01°16' E 103°51'0 0.0
2015-Aug-18 08:24N 01°16' E 103°51'0 0.0
2015-Aug-18 07:33N 01°16' E 103°51'0 0.1
2015-Aug-18 06:30N 01°16' E 103°51'0 0.1
2015-Aug-18 05:30N 01°16' E 103°51'0 0.0
2015-Aug-18 04:30N 01°16' E 103°51'0 0.1
2015-Aug-18 04:03N 01°16' E 103°51'0 0.1
2015-Aug-18 03:30N 01°16' E 103°51'0 0.0
2015-Aug-18 02:30N 01°16' E 103°51'0 0.0
2015-Aug-18 00:30N 01°16' E 103°51'0 0.0
2015-Aug-17 23:33N 01°16' E 103°51'0 0.0
2015-Aug-17 22:33N 01°16' E 103°51'  
Track history (hours):
 
Tides and Currents Weather Stations Pressure Air Temp Water Temp Dewpoint Dewpoint Depression Visibility Wind Speed Wind Dir Waves Ship Positions

OOCL Atlanta

Last reported at 2015-Aug-27 22:13 UTC. Time now 2015-Sep-01 05:56 UTC.
Position N 23°30' E 117°58'.

Length 323 m; beam 42.8 m; draft 14.5 m.

Type: Cargo ship. MMSI: 477920300.

Date/timePositionNaut miles runAvg speedWind from/ knotsBaromVisibWave heightAir tempDewpointWater temp
2015-Aug-27 22:13N 23°30' E 117°58'7520.3
2015-Aug-27 18:33N 22°49' E 116°50'12720.4
2015-Aug-27 12:18N 22°22' E 114°35'6 0.2
2015-Aug-26 11:26N 22°19' E 114°30'1212.7
2015-Aug-26 10:30N 22°09' E 114°22'1212.0
2015-Aug-26 09:32N 22°12' E 114°10'9 8.9
2015-Aug-26 08:33N 22°20' E 114°07'0 0.1
2015-Aug-26 02:23N 22°21' E 114°07'0 0.0
2015-Aug-26 00:08N 22°21' E 114°07'0 0.0
2015-Aug-25 22:14N 22°21' E 114°07'0 0.0
2015-Aug-25 21:26N 22°21' E 114°07'0 0.0
2015-Aug-25 20:17N 22°21' E 114°07'0 0.0
2015-Aug-25 19:23N 22°21' E 114°07'0 0.0
2015-Aug-25 18:29N 22°21' E 114°07'0 0.0
2015-Aug-25 15:17N 22°21' E 114°07'2 2.6
2015-Aug-25 14:33N 22°19' E 114°06'10 8.5
2015-Aug-25 13:22N 22°21' E 113°56'12 2.8
2015-Aug-25 09:14N 22°32' E 113°51'0 0.0
2015-Aug-25 08:32N 22°32' E 113°51'0 0.0
2015-Aug-25 07:20N 22°32' E 113°51'0 0.0
2015-Aug-25 06:26N 22°32' E 113°51'0 0.0
2015-Aug-25 05:32N 22°32' E 113°51'0 0.0
2015-Aug-25 04:32N 22°32' E 113°51'0 0.0
2015-Aug-25 03:32N 22°32' E 113°51'0 0.0
2015-Aug-25 02:32N 22°32' E 113°51'0 0.0
2015-Aug-25 01:32N 22°32' E 113°51'0 0.0
2015-Aug-25 00:32N 22°32' E 113°51'4 1.7
2015-Aug-24 22:23N 22°28' E 113°52'16 8.8
2015-Aug-24 20:33N 22°19' E 114°06'1110.9
2015-Aug-24 19:32N 22°10' E 114°13'1211.8
2015-Aug-24 18:34N 22°07' E 114°25'1613.8
2015-Aug-24 17:25N 21°53' E 114°18'  
2015-Aug-18 16:33N 01°14' E 104°04'1312.6
2015-Aug-18 15:33N 01°15' E 103°51'0 0.3
2015-Aug-18 14:33N 01°16' E 103°51'0 0.1
2015-Aug-18 13:33N 01°16' E 103°51'0 0.0
2015-Aug-18 12:30N 01°16' E 103°51'0 0.0
2015-Aug-18 11:24N 01°16' E 103°51'0 0.0
2015-Aug-18 10:30N 01°16' E 103°51'0 0.0
2015-Aug-18 09:30N 01°16' E 103°51'0 0.0
2015-Aug-18 08:24N 01°16' E 103°51'0 0.0
2015-Aug-18 07:33N 01°16' E 103°51'0 0.1
2015-Aug-18 06:30N 01°16' E 103°51'0 0.1
2015-Aug-18 05:30N 01°16' E 103°51'0 0.0
2015-Aug-18 04:30N 01°16' E 103°51'0 0.1
2015-Aug-18 04:03N 01°16' E 103°51'0 0.1
2015-Aug-18 03:30N 01°16' E 103°51'0 0.0
2015-Aug-18 02:30N 01°16' E 103°51'0 0.0
2015-Aug-18 00:30N 01°16' E 103°51'0 0.0
2015-Aug-17 23:33N 01°16' E 103°51'0 0.0
2015-Aug-17 22:33N 01°16' E 103°51'  

Dump ship's entire track history